aviador You're here:

YCIN Decoded Metar

CURTIN/DERBY in _UNIDENTIFIED
Report Time2017-07-24 16:30:00
UTC Time2017-07-24 16:45:48
Flight Rules vfr VFR
Wind130° at 08 kt
W.Decomp.*RWY 11: 7.6 kt HW 2.5 kt RCW
W.Rank130° ranks 1
Current wind is above 130° avg. (7.4)
Visibility9999 m
Phenomena:N/A
Clouds:N/A
Expected CloudBase > 8,000 ft AGL from Temp-Dew spread
CeilingNone
Temp22°C (ISA +8)
Dew Point02°C (27% RH)
AAT17.5°C
QNH1014 hPa
Density Alt1,250 ft
Elevation299 ft
Report Wrong Elevation
Raw Report
METAR YCIN 241630Z AUTO 13008KT 9999 // NCD 22/02 Q1014
RF00.0/000.0=

Extra information for YCIN:More info

Metar Taf Metar & Taf Last 4 Metars F.Rules Stats Wind Profile Meteogram Temp Stats Airport Information Weather charts Add Link Nearby VenuesMetar ALERT Operation Metar Decoded Social comments